sensor_id;sensor_type;location;lat;lon;timestamp;pressure;altitude;pressure_sealevel;temperature;humidity
61524;BME280;47393;38.758;-9.164;2022-09-02T00:00:04;100650.31;;;18.68;92.48
61524;BME280;47393;38.758;-9.164;2022-09-02T00:02:12;100671.75;;;18.75;92.63
61524;BME280;47393;38.758;-9.164;2022-09-02T00:04:33;100682.56;;;18.82;92.91
61524;BME280;47393;38.758;-9.164;2022-09-02T00:06:35;100589.97;;;18.28;92.62
61524;BME280;47393;38.758;-9.164;2022-09-02T00:11:00;100635.69;;;18.56;93.25
61524;BME280;47393;38.758;-9.164;2022-09-02T00:13:06;100602.47;;;18.36;93.07
61524;BME280;47393;38.758;-9.164;2022-09-02T00:15:11;100606.78;;;18.37;93.22
61524;BME280;47393;38.758;-9.164;2022-09-02T00:17:12;100667.94;;;18.78;92.99
61524;BME280;47393;38.758;-9.164;2022-09-02T00:19:21;100622.28;;;18.25;94.02
61524;BME280;47393;38.758;-9.164;2022-09-02T00:21:26;100669.84;;;18.36;94.80
61524;BME280;47393;38.758;-9.164;2022-09-02T00:23:27;100637.94;;;17.95;96.09
61524;BME280;47393;38.758;-9.164;2022-09-02T00:25:28;100648.22;;;17.90;97.44
61524;BME280;47393;38.758;-9.164;2022-09-02T00:27:31;100603.47;;;17.52;97.91
61524;BME280;47393;38.758;-9.164;2022-09-02T00:29:32;100679.03;;;18.01;98.58
61524;BME280;47393;38.758;-9.164;2022-09-02T00:31:33;100609.97;;;17.74;98.19
61524;BME280;47393;38.758;-9.164;2022-09-02T00:33:34;100602.84;;;17.67;97.98
61524;BME280;47393;38.758;-9.164;2022-09-02T00:35:35;100675.38;;;18.02;98.50
61524;BME280;47393;38.758;-9.164;2022-09-02T00:37:42;100667.22;;;18.03;98.79
61524;BME280;47393;38.758;-9.164;2022-09-02T00:39:48;100608.16;;;17.67;98.54
61524;BME280;47393;38.758;-9.164;2022-09-02T00:41:55;100606.31;;;17.75;98.91
61524;BME280;47393;38.758;-9.164;2022-09-02T00:46:07;100566.91;;;17.62;98.83
61524;BME280;47393;38.758;-9.164;2022-09-02T00:48:08;100659.88;;;18.30;98.66
61524;BME280;47393;38.758;-9.164;2022-09-02T00:50:26;100656.03;;;18.41;98.57
61524;BME280;47393;38.758;-9.164;2022-09-02T00:52:32;100653.53;;;18.47;98.21
61524;BME280;47393;38.758;-9.164;2022-09-02T00:54:38;100641.91;;;18.40;98.31
61524;BME280;47393;38.758;-9.164;2022-09-02T00:56:43;100625.41;;;18.37;98.04
61524;BME280;47393;38.758;-9.164;2022-09-02T00:58:44;100637.53;;;18.56;97.09
61524;BME280;47393;38.758;-9.164;2022-09-02T01:00:48;100632.69;;;18.59;97.06
61524;BME280;47393;38.758;-9.164;2022-09-02T01:03:02;100613.06;;;18.52;97.04
61524;BME280;47393;38.758;-9.164;2022-09-02T01:05:28;100651.94;;;18.78;97.10
61524;BME280;47393;38.758;-9.164;2022-09-02T01:07:32;100658.28;;;18.77;96.93
61524;BME280;47393;38.758;-9.164;2022-09-02T01:09:37;100564.22;;;18.20;96.89
61524;BME280;47393;38.758;-9.164;2022-09-02T01:12:02;100570.00;;;18.32;97.10
61524;BME280;47393;38.758;-9.164;2022-09-02T01:14:04;100582.97;;;18.43;96.79
61524;BME280;47393;38.758;-9.164;2022-09-02T01:16:12;100649.59;;;18.83;96.78
61524;BME280;47393;38.758;-9.164;2022-09-02T01:18:22;100585.28;;;18.46;97.11
61524;BME280;47393;38.758;-9.164;2022-09-02T01:20:25;100582.13;;;18.43;97.21
61524;BME280;47393;38.758;-9.164;2022-09-02T01:22:30;100604.06;;;18.53;97.59
61524;BME280;47393;38.758;-9.164;2022-09-02T01:24:32;100615.88;;;18.59;97.95
61524;BME280;47393;38.758;-9.164;2022-09-02T01:26:33;100597.28;;;18.42;98.24
61524;BME280;47393;38.758;-9.164;2022-09-02T01:28:35;100566.06;;;18.11;98.49
61524;BME280;47393;38.758;-9.164;2022-09-02T01:30:45;100625.38;;;18.53;99.09
61524;BME280;47393;38.758;-9.164;2022-09-02T01:32:52;100645.66;;;18.62;99.42
61524;BME280;47393;38.758;-9.164;2022-09-02T01:34:54;100656.84;;;18.58;100.00
61524;BME280;47393;38.758;-9.164;2022-09-02T01:37:03;100576.38;;;18.06;100.00
61524;BME280;47393;38.758;-9.164;2022-09-02T01:41:26;100557.44;;;17.93;100.00
61524;BME280;47393;38.758;-9.164;2022-09-02T01:43:33;100621.28;;;18.18;98.92
61524;BME280;47393;38.758;-9.164;2022-09-02T01:45:41;100564.75;;;17.83;98.13
61524;BME280;47393;38.758;-9.164;2022-09-02T01:47:49;100645.25;;;18.26;98.47
61524;BME280;47393;38.758;-9.164;2022-09-02T01:50:10;100628.78;;;18.14;98.67
61524;BME280;47393;38.758;-9.164;2022-09-02T01:52:33;100580.53;;;17.68;99.22
61524;BME280;47393;38.758;-9.164;2022-09-02T01:54:38;100591.69;;;17.71;99.73
61524;BME280;47393;38.758;-9.164;2022-09-02T01:56:41;100595.66;;;17.59;100.00
61524;BME280;47393;38.758;-9.164;2022-09-02T01:58:45;100622.13;;;17.77;100.00
61524;BME280;47393;38.758;-9.164;2022-09-02T02:00:52;100574.88;;;17.46;100.00
61524;BME280;47393;38.758;-9.164;2022-09-02T02:02:53;100631.44;;;17.81;100.00
61524;BME280;47393;38.758;-9.164;2022-09-02T02:04:55;100572.38;;;17.44;100.00
61524;BME280;47393;38.758;-9.164;2022-09-02T02:06:56;100591.50;;;17.56;100.00
61524;BME280;47393;38.758;-9.164;2022-09-02T02:09:03;100587.19;;;17.47;100.00
61524;BME280;47393;38.758;-9.164;2022-09-02T02:11:21;100631.41;;;17.73;100.00
61524;BME280;47393;38.758;-9.164;2022-09-02T02:13:26;100599.47;;;17.40;100.00
61524;BME280;47393;38.758;-9.164;2022-09-02T02:15:31;100554.53;;;17.12;100.00
61524;BME280;47393;38.758;-9.164;2022-09-02T02:17:55;100606.59;;;17.39;100.00
61524;BME280;47393;38.758;-9.164;2022-09-02T02:19:59;100597.63;;;17.40;100.00
61524;BME280;47393;38.758;-9.164;2022-09-02T02:22:00;100603.81;;;17.41;100.00
61524;BME280;47393;38.758;-9.164;2022-09-02T02:24:01;100571.88;;;17.33;100.00
61524;BME280;47393;38.758;-9.164;2022-09-02T02:26:10;100620.94;;;17.63;100.00
61524;BME280;47393;38.758;-9.164;2022-09-02T02:28:11;100547.75;;;17.09;100.00
61524;BME280;47393;38.758;-9.164;2022-09-02T02:30:13;100572.84;;;17.15;100.00
61524;BME280;47393;38.758;-9.164;2022-09-02T02:32:18;100518.41;;;16.76;100.00
61524;BME280;47393;38.758;-9.164;2022-09-02T02:34:24;100527.22;;;16.77;100.00
61524;BME280;47393;38.758;-9.164;2022-09-02T02:36:25;100536.81;;;16.70;100.00
61524;BME280;47393;38.758;-9.164;2022-09-02T02:38:33;100557.09;;;16.79;100.00
61524;BME280;47393;38.758;-9.164;2022-09-02T02:40:35;100572.25;;;16.87;100.00
61524;BME280;47393;38.758;-9.164;2022-09-02T02:42:42;100623.97;;;17.09;100.00
61524;BME280;47393;38.758;-9.164;2022-09-02T02:44:43;100575.69;;;16.79;100.00
61524;BME280;47393;38.758;-9.164;2022-09-02T02:46:51;100589.25;;;17.02;100.00
61524;BME280;47393;38.758;-9.164;2022-09-02T02:48:58;100530.84;;;16.68;100.00
61524;BME280;47393;38.758;-9.164;2022-09-02T02:51:23;100577.41;;;16.88;100.00
61524;BME280;47393;38.758;-9.164;2022-09-02T02:53:24;100561.38;;;16.64;100.00
61524;BME280;47393;38.758;-9.164;2022-09-02T02:55:30;100562.63;;;16.51;100.00
61524;BME280;47393;38.758;-9.164;2022-09-02T02:57:35;100618.94;;;16.98;100.00
61524;BME280;47393;38.758;-9.164;2022-09-02T02:59:39;100597.94;;;16.78;100.00
61524;BME280;47393;38.758;-9.164;2022-09-02T03:01:40;100564.25;;;16.44;100.00
61524;BME280;47393;38.758;-9.164;2022-09-02T03:03:45;100623.97;;;16.74;100.00
61524;BME280;47393;38.758;-9.164;2022-09-02T03:05:51;100562.84;;;16.32;100.00
61524;BME280;47393;38.758;-9.164;2022-09-02T03:07:53;100607.59;;;16.53;100.00
61524;BME280;47393;38.758;-9.164;2022-09-02T03:09:54;100602.97;;;16.55;100.00
61524;BME280;47393;38.758;-9.164;2022-09-02T03:11:55;100558.56;;;16.39;100.00
61524;BME280;47393;38.758;-9.164;2022-09-02T03:13:56;100529.38;;;16.39;100.00
61524;BME280;47393;38.758;-9.164;2022-09-02T03:16:03;100611.53;;;17.09;100.00
61524;BME280;47393;38.758;-9.164;2022-09-02T03:18:06;100542.50;;;16.75;100.00
61524;BME280;47393;38.758;-9.164;2022-09-02T03:20:30;100583.78;;;17.12;100.00
61524;BME280;47393;38.758;-9.164;2022-09-02T03:22:53;100525.72;;;16.83;100.00
61524;BME280;47393;38.758;-9.164;2022-09-02T03:24:58;100536.91;;;16.94;100.00
61524;BME280;47393;38.758;-9.164;2022-09-02T03:27:02;100608.63;;;17.45;100.00
61524;BME280;47393;38.758;-9.164;2022-09-02T03:29:07;100580.66;;;17.25;100.00
61524;BME280;47393;38.758;-9.164;2022-09-02T03:31:31;100564.84;;;17.07;100.00
61524;BME280;47393;38.758;-9.164;2022-09-02T03:33:41;100536.41;;;16.91;100.00
61524;BME280;47393;38.758;-9.164;2022-09-02T03:35:43;100525.38;;;16.77;100.00
61524;BME280;47393;38.758;-9.164;2022-09-02T03:37:47;100525.66;;;16.66;100.00
61524;BME280;47393;38.758;-9.164;2022-09-02T03:39:54;100561.09;;;16.83;100.00
61524;BME280;47393;38.758;-9.164;2022-09-02T03:41:56;100591.75;;;17.04;100.00
61524;BME280;47393;38.758;-9.164;2022-09-02T03:44:20;100547.44;;;16.70;100.00
61524;BME280;47393;38.758;-9.164;2022-09-02T03:46:22;100491.19;;;16.32;100.00
61524;BME280;47393;38.758;-9.164;2022-09-02T03:48:24;100533.25;;;16.53;100.00
61524;BME280;47393;38.758;-9.164;2022-09-02T03:50:29;100518.00;;;16.55;100.00
61524;BME280;47393;38.758;-9.164;2022-09-02T03:52:31;100521.97;;;16.51;100.00
61524;BME280;47393;38.758;-9.164;2022-09-02T03:54:35;100560.56;;;16.71;100.00
61524;BME280;47393;38.758;-9.164;2022-09-02T03:56:37;100509.69;;;16.50;100.00
61524;BME280;47393;38.758;-9.164;2022-09-02T03:58:59;100530.81;;;16.59;100.00
61524;BME280;47393;38.758;-9.164;2022-09-02T04:01:01;100517.59;;;16.41;100.00
61524;BME280;47393;38.758;-9.164;2022-09-02T04:03:03;100539.63;;;16.68;100.00
61524;BME280;47393;38.758;-9.164;2022-09-02T04:05:12;100539.47;;;16.70;100.00
61524;BME280;47393;38.758;-9.164;2022-09-02T04:07:16;100567.75;;;16.87;100.00
61524;BME280;47393;38.758;-9.164;2022-09-02T04:09:17;100557.41;;;16.76;100.00
61524;BME280;47393;38.758;-9.164;2022-09-02T04:11:22;100543.66;;;16.46;100.00
61524;BME280;47393;38.758;-9.164;2022-09-02T04:13:26;100511.38;;;16.24;100.00
61524;BME280;47393;38.758;-9.164;2022-09-02T04:15:27;100521.78;;;16.44;100.00
61524;BME280;47393;38.758;-9.164;2022-09-02T04:17:34;100528.06;;;16.43;100.00
61524;BME280;47393;38.758;-9.164;2022-09-02T04:19:43;100546.25;;;16.30;100.00
61524;BME280;47393;38.758;-9.164;2022-09-02T04:22:07;100549.06;;;16.28;100.00
61524;BME280;47393;38.758;-9.164;2022-09-02T04:24:34;100596.44;;;16.41;100.00
61524;BME280;47393;38.758;-9.164;2022-09-02T04:26:51;100593.25;;;16.37;100.00
61524;BME280;47393;38.758;-9.164;2022-09-02T04:29:31;100536.38;;;16.14;100.00
61524;BME280;47393;38.758;-9.164;2022-09-02T04:31:53;100521.13;;;16.16;100.00
61524;BME280;47393;38.758;-9.164;2022-09-02T04:34:35;100567.94;;;16.51;100.00
61524;BME280;47393;38.758;-9.164;2022-09-02T04:36:55;100574.38;;;16.49;100.00
61524;BME280;47393;38.758;-9.164;2022-09-02T04:38:57;100516.19;;;16.21;100.00
61524;BME280;47393;38.758;-9.164;2022-09-02T04:41:13;100525.41;;;16.43;100.00
61524;BME280;47393;38.758;-9.164;2022-09-02T04:43:34;100519.56;;;16.31;100.00
61524;BME280;47393;38.758;-9.164;2022-09-02T04:45:49;100530.22;;;16.39;100.00
61524;BME280;47393;38.758;-9.164;2022-09-02T04:47:59;100517.34;;;16.18;100.00
61524;BME280;47393;38.758;-9.164;2022-09-02T04:50:07;100531.81;;;16.24;100.00
61524;BME280;47393;38.758;-9.164;2022-09-02T04:52:34;100533.41;;;16.17;100.00
61524;BME280;47393;38.758;-9.164;2022-09-02T04:54:38;100514.38;;;15.95;100.00
61524;BME280;47393;38.758;-9.164;2022-09-02T04:56:41;100535.09;;;16.18;100.00
61524;BME280;47393;38.758;-9.164;2022-09-02T04:58:43;100590.75;;;16.36;100.00
61524;BME280;47393;38.758;-9.164;2022-09-02T05:00:45;100559.28;;;16.15;100.00
61524;BME280;47393;38.758;-9.164;2022-09-02T05:02:54;100567.50;;;16.03;100.00
61524;BME280;47393;38.758;-9.164;2022-09-02T05:05:00;100591.88;;;16.25;100.00
61524;BME280;47393;38.758;-9.164;2022-09-02T05:07:05;100588.94;;;16.10;100.00
61524;BME280;47393;38.758;-9.164;2022-09-02T05:09:12;100542.00;;;15.84;100.00
61524;BME280;47393;38.758;-9.164;2022-09-02T05:11:20;100476.78;;;15.55;100.00
61524;BME280;47393;38.758;-9.164;2022-09-02T05:13:31;100585.84;;;16.15;100.00
61524;BME280;47393;38.758;-9.164;2022-09-02T05:15:38;100504.19;;;15.64;100.00
61524;BME280;47393;38.758;-9.164;2022-09-02T05:17:47;100591.59;;;16.36;100.00
61524;BME280;47393;38.758;-9.164;2022-09-02T05:19:49;100548.88;;;16.21;100.00
61524;BME280;47393;38.758;-9.164;2022-09-02T05:21:54;100524.53;;;16.00;100.00
61524;BME280;47393;38.758;-9.164;2022-09-02T05:24:05;100496.16;;;15.74;100.00
61524;BME280;47393;38.758;-9.164;2022-09-02T05:26:39;100590.75;;;16.36;100.00
61524;BME280;47393;38.758;-9.164;2022-09-02T05:28:41;100590.19;;;16.24;100.00
61524;BME280;47393;38.758;-9.164;2022-09-02T05:30:43;100539.63;;;15.99;100.00
61524;BME280;47393;38.758;-9.164;2022-09-02T05:32:45;100521.06;;;15.99;100.00
61524;BME280;47393;38.758;-9.164;2022-09-02T05:35:17;100521.41;;;16.04;100.00
61524;BME280;47393;38.758;-9.164;2022-09-02T05:37:33;100533.66;;;16.32;100.00
61524;BME280;47393;38.758;-9.164;2022-09-02T05:39:39;100525.25;;;16.36;100.00
61524;BME280;47393;38.758;-9.164;2022-09-02T05:44:08;100550.59;;;16.39;100.00
61524;BME280;47393;38.758;-9.164;2022-09-02T05:46:16;100595.84;;;16.55;100.00
61524;BME280;47393;38.758;-9.164;2022-09-02T05:48:23;100587.66;;;16.49;100.00
61524;BME280;47393;38.758;-9.164;2022-09-02T05:50:43;100594.13;;;16.46;100.00
61524;BME280;47393;38.758;-9.164;2022-09-02T05:52:56;100597.97;;;16.52;100.00
61524;BME280;47393;38.758;-9.164;2022-09-02T05:54:57;100508.88;;;15.88;100.00
61524;BME280;47393;38.758;-9.164;2022-09-02T05:57:05;100595.25;;;16.35;100.00
61524;BME280;47393;38.758;-9.164;2022-09-02T05:59:06;100510.75;;;15.78;100.00
61524;BME280;47393;38.758;-9.164;2022-09-02T06:01:10;100580.63;;;16.05;100.00
61524;BME280;47393;38.758;-9.164;2022-09-02T06:03:15;100562.38;;;16.02;100.00
61524;BME280;47393;38.758;-9.164;2022-09-02T06:05:17;100490.59;;;15.59;100.00
61524;BME280;47393;38.758;-9.164;2022-09-02T06:07:23;100588.50;;;16.23;100.00
61524;BME280;47393;38.758;-9.164;2022-09-02T06:09:25;100601.78;;;16.23;100.00
61524;BME280;47393;38.758;-9.164;2022-09-02T06:11:31;100561.09;;;16.14;100.00
61524;BME280;47393;38.758;-9.164;2022-09-02T06:13:37;100596.06;;;16.36;100.00
61524;BME280;47393;38.758;-9.164;2022-09-02T06:15:42;100594.91;;;16.38;100.00
61524;BME280;47393;38.758;-9.164;2022-09-02T06:17:44;100601.91;;;16.74;100.00
61524;BME280;47393;38.758;-9.164;2022-09-02T06:19:46;100550.91;;;16.62;100.00
61524;BME280;47393;38.758;-9.164;2022-09-02T06:21:51;100574.66;;;17.15;100.00
61524;BME280;47393;38.758;-9.164;2022-09-02T06:23:53;100584.22;;;17.58;100.00
61524;BME280;47393;38.758;-9.164;2022-09-02T06:25:54;100580.72;;;18.07;100.00
61524;BME280;47393;38.758;-9.164;2022-09-02T06:27:55;100539.81;;;18.48;99.05
61524;BME280;47393;38.758;-9.164;2022-09-02T06:29:59;100522.53;;;19.15;92.81
61524;BME280;47393;38.758;-9.164;2022-09-02T06:32:03;100577.81;;;20.05;88.03
61524;BME280;47393;38.758;-9.164;2022-09-02T06:34:05;100591.59;;;20.92;83.52
61524;BME280;47393;38.758;-9.164;2022-09-02T06:36:18;100578.19;;;21.29;79.95
61524;BME280;47393;38.758;-9.164;2022-09-02T06:38:22;100539.44;;;21.89;76.43
61524;BME280;47393;38.758;-9.164;2022-09-02T06:45:52;100629.56;;;24.96;64.74
61524;BME280;47393;38.758;-9.164;2022-09-02T06:48:46;100542.53;;;25.48;60.05
61524;BME280;47393;38.758;-9.164;2022-09-02T06:51:22;100641.13;;;26.06;58.69
61524;BME280;47393;38.758;-9.164;2022-09-02T06:53:29;100639.72;;;26.03;58.21
61524;BME280;47393;38.758;-9.164;2022-09-02T06:55:44;100595.22;;;26.56;56.62
61524;BME280;47393;38.758;-9.164;2022-09-02T06:57:49;100598.44;;;27.14;54.47
61524;BME280;47393;38.758;-9.164;2022-09-02T06:59:50;100584.25;;;26.88;54.39
61524;BME280;47393;38.758;-9.164;2022-09-02T07:02:00;100613.53;;;27.88;52.35
61524;BME280;47393;38.758;-9.164;2022-09-02T07:04:14;100605.03;;;28.55;49.90
61524;BME280;47393;38.758;-9.164;2022-09-02T07:09:41;100605.03;;;27.49;51.96
61524;BME280;47393;38.758;-9.164;2022-09-02T07:11:51;100647.56;;;27.65;52.24
61524;BME280;47393;38.758;-9.164;2022-09-02T07:13:54;100587.53;;;27.21;52.78
61524;BME280;47393;38.758;-9.164;2022-09-02T07:15:57;100657.19;;;28.03;51.25
61524;BME280;47393;38.758;-9.164;2022-09-02T07:18:04;100583.50;;;26.44;53.86
61524;BME280;47393;38.758;-9.164;2022-09-02T07:20:09;100647.19;;;25.95;55.93
61524;BME280;47393;38.758;-9.164;2022-09-02T07:22:35;100631.47;;;25.28;58.14
61524;BME280;47393;38.758;-9.164;2022-09-02T07:24:38;100633.94;;;24.84;58.64
61524;BME280;47393;38.758;-9.164;2022-09-02T07:26:41;100633.88;;;25.49;57.59
61524;BME280;47393;38.758;-9.164;2022-09-02T07:28:45;100668.66;;;26.77;54.80
61524;BME280;47393;38.758;-9.164;2022-09-02T07:31:15;100643.66;;;28.15;50.38
61524;BME280;47393;38.758;-9.164;2022-09-02T07:33:22;100674.22;;;28.39;48.72
61524;BME280;47393;38.758;-9.164;2022-09-02T07:35:24;100632.09;;;29.08;47.23
61524;BME280;47393;38.758;-9.164;2022-09-02T07:37:30;100620.72;;;29.68;45.04
61524;BME280;47393;38.758;-9.164;2022-09-02T07:39:46;100645.19;;;29.57;45.69
61524;BME280;47393;38.758;-9.164;2022-09-02T07:42:08;100655.72;;;29.53;45.45
61524;BME280;47393;38.758;-9.164;2022-09-02T07:44:10;100641.72;;;28.87;46.92
61524;BME280;47393;38.758;-9.164;2022-09-02T07:46:14;100647.97;;;28.75;46.81
61524;BME280;47393;38.758;-9.164;2022-09-02T07:48:19;100649.34;;;29.18;46.54
61524;BME280;47393;38.758;-9.164;2022-09-02T07:50:21;100632.41;;;29.69;44.03
61524;BME280;47393;38.758;-9.164;2022-09-02T07:52:32;100686.06;;;30.74;43.00
61524;BME280;47393;38.758;-9.164;2022-09-02T07:54:36;100677.41;;;30.99;42.19
61524;BME280;47393;38.758;-9.164;2022-09-02T07:56:41;100654.13;;;31.03;41.65
61524;BME280;47393;38.758;-9.164;2022-09-02T07:58:53;100661.88;;;31.17;40.79
61524;BME280;47393;38.758;-9.164;2022-09-02T08:00:55;100620.72;;;30.19;42.16
61524;BME280;47393;38.758;-9.164;2022-09-02T08:02:58;100645.81;;;28.89;44.87
61524;BME280;47393;38.758;-9.164;2022-09-02T08:05:26;100675.56;;;29.59;44.79
61524;BME280;47393;38.758;-9.164;2022-09-02T08:07:47;100670.88;;;29.83;43.48
61524;BME280;47393;38.758;-9.164;2022-09-02T08:10:12;100662.94;;;29.64;43.46
61524;BME280;47393;38.758;-9.164;2022-09-02T08:12:13;100652.72;;;29.09;44.66
61524;BME280;47393;38.758;-9.164;2022-09-02T08:14:17;100655.41;;;28.09;47.31
61524;BME280;47393;38.758;-9.164;2022-09-02T08:16:18;100656.81;;;28.59;46.34
61524;BME280;47393;38.758;-9.164;2022-09-02T08:18:20;100669.50;;;29.68;43.96
61524;BME280;47393;38.758;-9.164;2022-09-02T08:20:22;100655.56;;;29.77;42.84
61524;BME280;47393;38.758;-9.164;2022-09-02T08:22:43;100640.13;;;29.31;43.73
61524;BME280;47393;38.758;-9.164;2022-09-02T08:24:48;100682.63;;;29.60;43.80
61524;BME280;47393;38.758;-9.164;2022-09-02T08:26:49;100671.00;;;29.76;43.30
61524;BME280;47393;38.758;-9.164;2022-09-02T08:28:49;100660.06;;;30.39;41.10
61524;BME280;47393;38.758;-9.164;2022-09-02T08:31:21;100683.63;;;29.99;42.27
61524;BME280;47393;38.758;-9.164;2022-09-02T08:33:25;100670.97;;;30.61;41.00
61524;BME280;47393;38.758;-9.164;2022-09-02T08:36:01;100701.47;;;29.66;42.92
61524;BME280;47393;38.758;-9.164;2022-09-02T08:38:04;100646.91;;;28.53;45.30
61524;BME280;47393;38.758;-9.164;2022-09-02T08:40:18;100686.53;;;28.00;46.30
61524;BME280;47393;38.758;-9.164;2022-09-02T08:42:23;100646.97;;;27.02;48.62
61524;BME280;47393;38.758;-9.164;2022-09-02T08:44:33;100702.28;;;27.60;48.27
61524;BME280;47393;38.758;-9.164;2022-09-02T08:46:37;100643.84;;;28.73;44.85
61524;BME280;47393;38.758;-9.164;2022-09-02T08:48:56;100687.72;;;28.51;45.03
61524;BME280;47393;38.758;-9.164;2022-09-02T08:51:12;100705.38;;;29.30;43.61
61524;BME280;47393;38.758;-9.164;2022-09-02T08:53:39;100695.44;;;29.64;42.89
61524;BME280;47393;38.758;-9.164;2022-09-02T08:55:49;100647.53;;;29.82;41.91
61524;BME280;47393;38.758;-9.164;2022-09-02T08:57:53;100697.38;;;31.10;39.30
61524;BME280;47393;38.758;-9.164;2022-09-02T08:59:59;100656.38;;;31.61;37.85
61524;BME280;47393;38.758;-9.164;2022-09-02T09:11:25;100703.69;;;31.38;38.30
61524;BME280;47393;38.758;-9.164;2022-09-02T09:14:00;100690.72;;;31.72;37.25
61524;BME280;47393;38.758;-9.164;2022-09-02T09:16:12;100708.19;;;31.82;36.90
61524;BME280;47393;38.758;-9.164;2022-09-02T09:18:16;100714.97;;;31.02;38.09
61524;BME280;47393;38.758;-9.164;2022-09-02T09:20:24;100682.63;;;30.06;40.41
61524;BME280;47393;38.758;-9.164;2022-09-02T09:22:31;100646.47;;;29.37;41.57
61524;BME280;47393;38.758;-9.164;2022-09-02T09:24:38;100709.31;;;30.31;40.17
61524;BME280;47393;38.758;-9.164;2022-09-02T09:26:44;100673.19;;;31.31;37.82
61524;BME280;47393;38.758;-9.164;2022-09-02T09:28:49;100652.66;;;32.10;35.82
61524;BME280;47393;38.758;-9.164;2022-09-02T09:30:50;100679.72;;;32.75;34.99
61524;BME280;47393;38.758;-9.164;2022-09-02T09:32:55;100638.16;;;32.42;35.20
61524;BME280;47393;38.758;-9.164;2022-09-02T09:35:03;100676.91;;;31.52;36.70
61524;BME280;47393;38.758;-9.164;2022-09-02T09:37:11;100643.47;;;30.35;38.61
61524;BME280;47393;38.758;-9.164;2022-09-02T09:39:30;100696.78;;;29.79;40.82
61524;BME280;47393;38.758;-9.164;2022-09-02T09:41:31;100708.75;;;29.49;41.93
61524;BME280;47393;38.758;-9.164;2022-09-02T09:43:33;100722.38;;;30.17;40.85
61524;BME280;47393;38.758;-9.164;2022-09-02T09:45:47;100697.88;;;30.85;39.23
61524;BME280;47393;38.758;-9.164;2022-09-02T09:50:17;100687.16;;;31.72;36.58
61524;BME280;47393;38.758;-9.164;2022-09-02T09:52:29;100666.38;;;31.06;37.58
61524;BME280;47393;38.758;-9.164;2022-09-02T09:54:30;100678.75;;;30.18;38.73
61524;BME280;47393;38.758;-9.164;2022-09-02T09:56:32;100698.47;;;30.14;39.21
61524;BME280;47393;38.758;-9.164;2022-09-02T09:58:44;100680.22;;;28.65;42.06
61524;BME280;47393;38.758;-9.164;2022-09-02T10:00:46;100656.34;;;28.74;41.99
61524;BME280;47393;38.758;-9.164;2022-09-02T10:02:49;100695.97;;;29.32;41.16
61524;BME280;47393;38.758;-9.164;2022-09-02T10:05:10;100654.22;;;28.76;41.70
61524;BME280;47393;38.758;-9.164;2022-09-02T10:07:34;100622.59;;;27.93;43.11
61524;BME280;47393;38.758;-9.164;2022-09-02T10:09:35;100620.69;;;26.79;46.62
61524;BME280;47393;38.758;-9.164;2022-09-02T10:11:36;100695.63;;;29.17;42.05
61524;BME280;47393;38.758;-9.164;2022-09-02T10:13:37;100645.78;;;28.48;41.64
61524;BME280;47393;38.758;-9.164;2022-09-02T10:15:59;100680.53;;;27.86;44.31
61524;BME280;47393;38.758;-9.164;2022-09-02T10:30:23;100697.69;;;32.28;35.50
61524;BME280;47393;38.758;-9.164;2022-09-02T10:32:45;100692.06;;;32.07;34.76
61524;BME280;47393;38.758;-9.164;2022-09-02T10:40:23;100697.06;;;36.06;28.33
61524;BME280;47393;38.758;-9.164;2022-09-02T10:43:04;100709.47;;;35.58;28.33
61524;BME280;47393;38.758;-9.164;2022-09-02T10:46:07;100704.75;;;35.19;28.98
61524;BME280;47393;38.758;-9.164;2022-09-02T10:51:18;100692.50;;;34.41;29.70
61524;BME280;47393;38.758;-9.164;2022-09-02T10:54:45;100625.22;;;31.47;33.89
61524;BME280;47393;38.758;-9.164;2022-09-02T10:57:07;100679.81;;;32.42;33.02
61524;BME280;47393;38.758;-9.164;2022-09-02T10:59:53;100679.53;;;32.06;33.38
61524;BME280;47393;38.758;-9.164;2022-09-02T11:05:14;100687.34;;;33.72;31.28
61524;BME280;47393;38.758;-9.164;2022-09-02T11:07:54;100656.22;;;33.53;30.82
61524;BME280;47393;38.758;-9.164;2022-09-02T11:13:26;100671.28;;;33.76;30.65
61524;BME280;47393;38.758;-9.164;2022-09-02T11:15:38;100667.75;;;34.92;28.99
61524;BME280;47393;38.758;-9.164;2022-09-02T11:18:16;100677.56;;;33.76;30.28
61524;BME280;47393;38.758;-9.164;2022-09-02T11:21:04;100651.50;;;33.07;31.17
61524;BME280;47393;38.758;-9.164;2022-09-02T11:23:28;100657.91;;;33.95;30.41
61524;BME280;47393;38.758;-9.164;2022-09-02T11:26:28;100643.69;;;34.13;29.46
61524;BME280;47393;38.758;-9.164;2022-09-02T11:32:16;100590.28;;;35.87;26.99
61524;BME280;47393;38.758;-9.164;2022-09-02T11:35:37;100633.19;;;35.57;26.67
61524;BME280;47393;38.758;-9.164;2022-09-02T11:39:00;100581.81;;;33.52;29.35
61524;BME280;47393;38.758;-9.164;2022-09-02T11:41:26;100568.63;;;34.21;28.67
61524;BME280;47393;38.758;-9.164;2022-09-02T11:58:05;100568.22;;;33.32;30.15
61524;BME280;47393;38.758;-9.164;2022-09-02T12:03:00;100612.00;;;33.09;30.84
61524;BME280;47393;38.758;-9.164;2022-09-02T12:07:47;100543.66;;;33.78;30.03
61524;BME280;47393;38.758;-9.164;2022-09-02T12:09:55;100541.16;;;32.84;31.12
61524;BME280;47393;38.758;-9.164;2022-09-02T12:11:56;100551.53;;;33.07;31.26
61524;BME280;47393;38.758;-9.164;2022-09-02T12:13:57;100567.94;;;33.59;30.25
61524;BME280;47393;38.758;-9.164;2022-09-02T12:16:44;100620.25;;;33.87;30.40
61524;BME280;47393;38.758;-9.164;2022-09-02T12:21:09;100561.63;;;35.10;27.88
61524;BME280;47393;38.758;-9.164;2022-09-02T12:26:03;100602.97;;;35.38;26.68
61524;BME280;47393;38.758;-9.164;2022-09-02T12:28:22;100620.88;;;35.20;27.70
61524;BME280;47393;38.758;-9.164;2022-09-02T12:33:13;100582.81;;;34.23;29.14
61524;BME280;47393;38.758;-9.164;2022-09-02T12:35:48;100625.09;;;34.26;29.74